Time,TemperatureF,DewpointF,PressureIn,WindDirection,WindDirectionDegrees,WindSpeedMPH,WindSpeedGustMPH,Humidity,HourlyPrecipIn,Conditions,Clouds,dailyrainin,SoftwareType,DateUTC
2013-05-27 00:11:00,65.0,28.0,-100.00,WSW,247,8.0,20.0,25,0.00,,,0.00,,2013-05-27 00:11:00,
2013-05-27 00:21:00,65.0,28.0,-100.00,WSW,247,8.0,20.0,25,0.00,,,0.00,,2013-05-27 00:21:00,
2013-05-27 00:31:00,65.0,28.0,-100.00,WSW,247,8.0,20.0,25,0.00,,,0.00,,2013-05-27 00:31:00,
2013-05-27 00:41:00,65.0,28.0,-100.00,WSW,247,8.0,20.0,25,0.00,,,0.00,,2013-05-27 00:41:00,
2013-05-27 00:51:00,64.0,27.0,-100.00,WSW,241,9.0,20.0,25,0.00,,,0.00,,2013-05-27 00:51:00,
2013-05-27 01:11:00,64.0,27.0,-100.00,WSW,241,9.0,20.0,25,0.00,,,0.00,,2013-05-27 01:11:00,
2013-05-27 01:22:00,64.0,27.0,-100.00,WSW,241,9.0,20.0,25,0.00,,,0.00,,2013-05-27 01:22:00,
2013-05-27 01:31:00,64.0,27.0,-100.00,WSW,241,9.0,20.0,25,0.00,,,0.00,,2013-05-27 01:31:00,
2013-05-27 01:42:00,64.0,27.0,-100.00,WSW,241,9.0,20.0,25,0.00,,,0.00,,2013-05-27 01:42:00,
2013-05-27 01:51:00,63.0,27.0,-100.00,East,87,2.0,12.0,25,0.00,,,0.00,,2013-05-27 01:51:00,
2013-05-27 02:11:00,63.0,27.0,-100.00,East,87,2.0,12.0,25,0.00,,,0.00,,2013-05-27 02:11:00,
2013-05-27 02:21:00,63.0,27.0,-100.00,East,87,2.0,12.0,25,0.00,,,0.00,,2013-05-27 02:21:00,
2013-05-27 02:32:00,63.0,27.0,-100.00,East,87,2.0,12.0,25,0.00,,,0.00,,2013-05-27 02:32:00,
2013-05-27 02:42:00,63.0,27.0,-100.00,East,87,2.0,12.0,25,0.00,,,0.00,,2013-05-27 02:42:00,
2013-05-27 02:51:00,58.0,30.0,-100.00,East,85,4.0,8.0,34,0.00,,,0.00,,2013-05-27 02:51:00,
2013-05-27 03:11:00,58.0,30.0,-100.00,East,85,4.0,8.0,34,0.00,,,0.00,,2013-05-27 03:11:00,
2013-05-27 03:21:00,58.0,30.0,-100.00,East,85,4.0,8.0,34,0.00,,,0.00,,2013-05-27 03:21:00,
2013-05-27 03:33:00,58.0,30.0,-100.00,East,85,4.0,8.0,34,0.00,,,0.00,,2013-05-27 03:33:00,
2013-05-27 03:42:00,58.0,30.0,-100.00,East,85,4.0,8.0,34,0.00,,,0.00,,2013-05-27 03:42:00,
2013-05-27 03:51:00,54.0,31.0,-100.00,ENE,57,3.0,9.0,41,0.00,,,0.00,,2013-05-27 03:51:00,
2013-05-27 04:12:00,54.0,31.0,-100.00,ENE,57,3.0,9.0,41,0.00,,,0.00,,2013-05-27 04:12:00,
2013-05-27 04:23:00,54.0,31.0,-100.00,ENE,57,3.0,9.0,41,0.00,,,0.00,,2013-05-27 04:23:00,
2013-05-27 04:33:00,54.0,31.0,-100.00,ENE,57,3.0,9.0,41,0.00,,,0.00,,2013-05-27 04:33:00,
2013-05-27 04:42:00,54.0,31.0,-100.00,ENE,57,3.0,9.0,41,0.00,,,0.00,,2013-05-27 04:42:00,
2013-05-27 04:51:00,48.0,32.0,-100.00,South,187,5.0,11.0,54,0.00,,,0.00,,2013-05-27 04:51:00,
2013-05-27 05:12:00,48.0,32.0,-100.00,South,187,5.0,11.0,54,0.00,,,0.00,,2013-05-27 05:12:00,
2013-05-27 05:22:00,48.0,32.0,-100.00,South,187,5.0,11.0,54,0.00,,,0.00,,2013-05-27 05:22:00,
2013-05-27 05:32:00,48.0,32.0,-100.00,South,187,5.0,11.0,54,0.00,,,0.00,,2013-05-27 05:32:00,
2013-05-27 05:42:00,48.0,32.0,-100.00,South,187,5.0,11.0,54,0.00,,,0.00,,2013-05-27 05:42:00,
2013-05-27 05:51:00,51.0,34.0,-100.00,SW,222,3.0,14.0,52,0.00,,,0.00,,2013-05-27 05:51:00,
2013-05-27 06:11:00,51.0,34.0,-100.00,SW,222,3.0,14.0,52,0.00,,,0.00,,2013-05-27 06:11:00,
2013-05-27 06:21:00,51.0,34.0,-100.00,SW,222,3.0,14.0,52,0.00,,,0.00,,2013-05-27 06:21:00,
2013-05-27 06:32:00,51.0,34.0,-100.00,SW,222,3.0,14.0,52,0.00,,,0.00,,2013-05-27 06:32:00,
2013-05-27 06:41:00,51.0,34.0,-100.00,SW,222,3.0,14.0,52,0.00,,,0.00,,2013-05-27 06:41:00,
2013-05-27 06:51:00,50.0,37.0,-100.00,SW,216,5.0,10.0,60,0.00,,,0.00,,2013-05-27 06:51:00,
2013-05-27 07:11:00,50.0,37.0,-100.00,SW,216,5.0,10.0,60,0.00,,,0.00,,2013-05-27 07:11:00,
2013-05-27 07:21:00,50.0,37.0,-100.00,SW,216,5.0,10.0,60,0.00,,,0.00,,2013-05-27 07:21:00,
2013-05-27 07:31:00,50.0,37.0,-100.00,SW,216,5.0,10.0,60,0.00,,,0.00,,2013-05-27 07:31:00,
2013-05-27 07:41:00,50.0,37.0,-100.00,SW,216,5.0,10.0,60,0.00,,,0.00,,2013-05-27 07:41:00,
2013-05-27 07:51:00,47.0,41.0,-100.00,ENE,76,3.0,10.0,79,0.00,,,0.00,,2013-05-27 07:51:00,
2013-05-27 08:11:00,47.0,41.0,-100.00,ENE,76,3.0,10.0,79,0.00,,,0.00,,2013-05-27 08:11:00,
2013-05-27 08:21:00,47.0,41.0,-100.00,ENE,76,3.0,10.0,79,0.00,,,0.00,,2013-05-27 08:21:00,
2013-05-27 08:32:00,47.0,41.0,-100.00,ENE,76,3.0,10.0,79,0.00,,,0.00,,2013-05-27 08:32:00,
2013-05-27 08:42:00,47.0,41.0,-100.00,ENE,76,3.0,10.0,79,0.00,,,0.00,,2013-05-27 08:42:00,
2013-05-27 08:51:00,46.0,43.0,-100.00,SSW,207,3.0,6.0,88,0.01,,,0.01,,2013-05-27 08:51:00,
2013-05-27 09:11:00,46.0,43.0,-100.00,SSW,207,3.0,6.0,88,0.01,,,0.01,,2013-05-27 09:11:00,
2013-05-27 09:21:00,46.0,43.0,-100.00,SSW,207,3.0,6.0,88,0.01,,,0.01,,2013-05-27 09:21:00,
2013-05-27 09:33:00,46.0,43.0,-100.00,SSW,207,3.0,6.0,88,0.01,,,0.01,,2013-05-27 09:33:00,
2013-05-27 09:42:00,46.0,43.0,-100.00,SSW,207,3.0,6.0,88,0.01,,,0.01,,2013-05-27 09:42:00,
2013-05-27 09:51:00,45.0,44.0,-100.00,ENE,71,2.0,4.0,96,0.02,,,0.03,,2013-05-27 09:51:00,
2013-05-27 10:12:00,45.0,44.0,-100.00,ENE,71,2.0,4.0,96,0.02,,,0.03,,2013-05-27 10:12:00,
2013-05-27 10:22:00,45.0,44.0,-100.00,ENE,71,2.0,4.0,96,0.02,,,0.03,,2013-05-27 10:22:00,
2013-05-27 10:32:00,45.0,44.0,-100.00,ENE,71,2.0,4.0,96,0.02,,,0.03,,2013-05-27 10:32:00,
2013-05-27 10:42:00,45.0,44.0,-100.00,ENE,71,2.0,4.0,96,0.02,,,0.03,,2013-05-27 10:42:00,
2013-05-27 10:51:00,44.0,42.0,-100.00,East,101,2.0,8.0,91,0.00,,,0.03,,2013-05-27 10:51:00,
2013-05-27 11:11:00,44.0,42.0,-100.00,East,101,2.0,8.0,91,0.00,,,0.03,,2013-05-27 11:11:00,
2013-05-27 11:21:00,44.0,42.0,-100.00,East,101,2.0,8.0,91,0.00,,,0.03,,2013-05-27 11:21:00,
2013-05-27 11:32:00,44.0,42.0,-100.00,East,101,2.0,8.0,91,0.00,,,0.03,,2013-05-27 11:32:00,
2013-05-27 11:42:00,44.0,42.0,-100.00,East,101,2.0,8.0,91,0.00,,,0.03,,2013-05-27 11:42:00,
2013-05-27 11:51:00,42.0,41.0,-100.00,NE,56,5.0,8.0,96,0.00,,,0.03,,2013-05-27 11:51:00,
2013-05-27 12:11:00,42.0,41.0,-100.00,NE,56,5.0,8.0,96,0.00,,,0.03,,2013-05-27 12:11:00,
2013-05-27 12:21:00,42.0,41.0,-100.00,NE,56,5.0,8.0,96,0.00,,,0.03,,2013-05-27 12:21:00,
2013-05-27 12:32:00,42.0,41.0,-100.00,NE,56,5.0,8.0,96,0.00,,,0.03,,2013-05-27 12:32:00,
2013-05-27 12:42:00,42.0,41.0,-100.00,NE,56,5.0,8.0,96,0.00,,,0.03,,2013-05-27 12:42:00,
2013-05-27 12:51:00,41.0,40.0,-100.00,ENE,74,1.0,8.0,97,0.00,,,0.03,,2013-05-27 12:51:00,
2013-05-27 13:11:00,41.0,40.0,-100.00,ENE,74,1.0,8.0,97,0.00,,,0.03,,2013-05-27 13:11:00,
2013-05-27 13:21:00,41.0,40.0,-100.00,ENE,74,1.0,8.0,97,0.00,,,0.03,,2013-05-27 13:21:00,
2013-05-27 13:32:00,41.0,40.0,-100.00,ENE,74,1.0,8.0,97,0.00,,,0.03,,2013-05-27 13:32:00,
2013-05-27 13:41:00,41.0,40.0,-100.00,ENE,74,1.0,8.0,97,0.00,,,0.03,,2013-05-27 13:41:00,
2013-05-27 13:51:00,42.0,40.0,-100.00,NE,55,4.0,13.0,94,0.03,,,0.06,,2013-05-27 13:51:00,
2013-05-27 14:11:00,42.0,40.0,-100.00,NE,55,4.0,13.0,94,0.03,,,0.06,,2013-05-27 14:11:00,
2013-05-27 14:21:00,42.0,40.0,-100.00,NE,55,4.0,13.0,94,0.03,,,0.06,,2013-05-27 14:21:00,
2013-05-27 14:32:00,42.0,40.0,-100.00,NE,55,4.0,13.0,94,0.03,,,0.06,,2013-05-27 14:32:00,
2013-05-27 14:42:00,42.0,40.0,-100.00,NE,55,4.0,13.0,94,0.03,,,0.06,,2013-05-27 14:42:00,
2013-05-27 14:51:00,50.0,42.0,-100.00,South,185,3.0,7.0,75,0.00,,,0.06,,2013-05-27 14:51:00,
2013-05-27 15:11:00,50.0,42.0,-100.00,South,185,3.0,7.0,75,0.00,,,0.06,,2013-05-27 15:11:00,
2013-05-27 15:21:00,50.0,42.0,-100.00,South,185,3.0,7.0,75,0.00,,,0.06,,2013-05-27 15:21:00,
2013-05-27 15:33:00,50.0,42.0,-100.00,South,185,3.0,7.0,75,0.00,,,0.06,,2013-05-27 15:33:00,
2013-05-27 15:43:00,50.0,42.0,-100.00,South,185,3.0,7.0,75,0.00,,,0.06,,2013-05-27 15:43:00,
2013-05-27 15:51:00,53.0,36.0,-100.00,WNW,283,7.0,14.0,52,0.00,,,0.06,,2013-05-27 15:51:00,
2013-05-27 16:12:00,53.0,36.0,-100.00,WNW,283,7.0,14.0,52,0.00,,,0.06,,2013-05-27 16:12:00,
2013-05-27 16:23:00,53.0,36.0,-100.00,WNW,283,7.0,14.0,52,0.00,,,0.06,,2013-05-27 16:23:00,
2013-05-27 16:33:00,53.0,36.0,-100.00,WNW,283,7.0,14.0,52,0.00,,,0.06,,2013-05-27 16:33:00,
2013-05-27 16:42:00,53.0,36.0,-100.00,WNW,283,7.0,14.0,52,0.00,,,0.06,,2013-05-27 16:42:00,
2013-05-27 16:51:00,55.0,31.0,-100.00,WSW,251,10.0,19.0,40,0.00,,,0.06,,2013-05-27 16:51:00,
2013-05-27 17:11:00,55.0,31.0,-100.00,WSW,251,10.0,19.0,40,0.00,,,0.06,,2013-05-27 17:11:00,
2013-05-27 17:22:00,55.0,31.0,-100.00,WSW,251,10.0,19.0,40,0.00,,,0.06,,2013-05-27 17:22:00,
2013-05-27 17:32:00,55.0,31.0,-100.00,WSW,251,10.0,19.0,40,0.00,,,0.06,,2013-05-27 17:32:00,
2013-05-27 17:43:00,55.0,31.0,-100.00,WSW,251,10.0,19.0,40,0.00,,,0.06,,2013-05-27 17:43:00,
2013-05-27 17:51:00,57.0,31.0,-100.00,WSW,242,9.0,19.0,37,0.00,,,0.06,,2013-05-27 17:51:00,
2013-05-27 18:11:00,57.0,31.0,-100.00,WSW,242,9.0,19.0,37,0.00,,,0.06,,2013-05-27 18:11:00,
2013-05-27 18:21:00,57.0,31.0,-100.00,WSW,242,9.0,19.0,37,0.00,,,0.06,,2013-05-27 18:21:00,
2013-05-27 18:32:00,57.0,31.0,-100.00,WSW,242,9.0,19.0,37,0.00,,,0.06,,2013-05-27 18:32:00,
2013-05-27 18:42:00,57.0,31.0,-100.00,WSW,242,9.0,19.0,37,0.00,,,0.06,,2013-05-27 18:42:00,
2013-05-27 18:51:00,56.0,29.0,-100.00,WSW,246,7.0,20.0,35,0.00,,,0.06,,2013-05-27 18:51:00,
2013-05-27 19:11:00,56.0,29.0,-100.00,WSW,246,7.0,20.0,35,0.00,,,0.06,,2013-05-27 19:11:00,
2013-05-27 19:21:00,56.0,29.0,-100.00,WSW,246,7.0,20.0,35,0.00,,,0.06,,2013-05-27 19:21:00,
2013-05-27 19:31:00,56.0,29.0,-100.00,WSW,246,7.0,20.0,35,0.00,,,0.06,,2013-05-27 19:31:00,
2013-05-27 19:41:00,56.0,29.0,-100.00,WSW,246,7.0,20.0,35,0.00,,,0.06,,2013-05-27 19:41:00,
2013-05-27 19:51:00,57.0,28.0,-100.00,West,277,6.0,19.0,33,0.00,,,0.06,,2013-05-27 19:51:00,
2013-05-27 20:11:00,57.0,28.0,-100.00,West,277,6.0,19.0,33,0.00,,,0.06,,2013-05-27 20:11:00,
2013-05-27 20:22:00,57.0,28.0,-100.00,West,277,6.0,19.0,33,0.00,,,0.06,,2013-05-27 20:22:00,
2013-05-27 20:32:00,57.0,28.0,-100.00,West,277,6.0,19.0,33,0.00,,,0.06,,2013-05-27 20:32:00,
2013-05-27 20:41:00,57.0,28.0,-100.00,West,277,6.0,19.0,33,0.00,,,0.06,,2013-05-27 20:41:00,
2013-05-27 20:51:00,61.0,30.0,-100.00,WSW,237,11.0,18.0,31,0.00,,,0.06,,2013-05-27 20:51:00,
2013-05-27 21:12:00,61.0,30.0,-100.00,WSW,237,11.0,18.0,31,0.00,,,0.06,,2013-05-27 21:12:00,
2013-05-27 21:21:00,61.0,30.0,-100.00,WSW,237,11.0,18.0,31,0.00,,,0.06,,2013-05-27 21:21:00,
2013-05-27 21:33:00,61.0,30.0,-100.00,WSW,237,11.0,18.0,31,0.00,,,0.06,,2013-05-27 21:33:00,
2013-05-27 21:43:00,61.0,30.0,-100.00,WSW,237,11.0,18.0,31,0.00,,,0.06,,2013-05-27 21:43:00,
2013-05-27 21:51:00,61.0,29.0,-100.00,SW,217,10.0,20.0,30,0.00,,,0.06,,2013-05-27 21:51:00,
2013-05-27 22:12:00,61.0,29.0,-100.00,SW,217,10.0,20.0,30,0.00,,,0.06,,2013-05-27 22:12:00,
2013-05-27 22:22:00,61.0,29.0,-100.00,SW,217,10.0,20.0,30,0.00,,,0.06,,2013-05-27 22:22:00,
2013-05-27 22:32:00,61.0,29.0,-100.00,SW,217,10.0,20.0,30,0.00,,,0.06,,2013-05-27 22:32:00,
2013-05-27 22:42:00,61.0,29.0,-100.00,SW,217,10.0,20.0,30,0.00,,,0.06,,2013-05-27 22:42:00,
2013-05-27 22:51:00,59.0,29.0,-100.00,WSW,246,8.0,15.0,32,0.00,,,0.06,,2013-05-27 22:51:00,
2013-05-27 23:12:00,59.0,29.0,-100.00,WSW,246,8.0,15.0,32,0.00,,,0.06,,2013-05-27 23:12:00,
2013-05-27 23:22:00,59.0,29.0,-100.00,WSW,246,8.0,15.0,32,0.00,,,0.06,,2013-05-27 23:22:00,
2013-05-27 23:32:00,59.0,29.0,-100.00,WSW,246,8.0,15.0,32,0.00,,,0.06,,2013-05-27 23:32:00,
2013-05-27 23:42:00,59.0,29.0,-100.00,WSW,246,8.0,15.0,32,0.00,,,0.06,,2013-05-27 23:42:00,
2013-05-27 23:51:00,61.0,29.0,-100.00,West,264,7.0,14.0,29,0.00,,,0.06,,2013-05-27 23:51:00,